createdAt,value
2018-11-03T00:01:42.385Z,3.73
2018-11-03T00:04:14.362Z,4.37
2018-11-03T00:06:43.696Z,4.53
2018-11-03T00:09:16.831Z,4.30
2018-11-03T00:11:46.655Z,4.50
2018-11-03T00:14:18.903Z,4.07
2018-11-03T00:16:49.755Z,4.17
2018-11-03T00:19:23.523Z,4.37
2018-11-03T00:21:52.767Z,4.23
2018-11-03T00:24:24.193Z,4.67
2018-11-03T00:26:53.421Z,3.77
2018-11-03T00:29:26.858Z,5.27
2018-11-03T00:31:56.370Z,4.97
2018-11-03T00:34:29.434Z,6.17
2018-11-03T00:36:58.903Z,5.07
2018-11-03T00:39:31.831Z,6.40
2018-11-03T00:42:02.083Z,6.37
2018-11-03T00:44:34.613Z,6.67
2018-11-03T00:47:04.035Z,5.60
2018-11-03T00:49:35.762Z,5.53
2018-11-03T00:52:05.490Z,5.53
2018-11-03T00:54:36.841Z,5.30
2018-11-03T00:57:06.377Z,5.07
2018-11-03T00:59:43.145Z,5.13
2018-11-03T01:02:12.328Z,4.17
2018-11-03T01:04:45.012Z,4.47
2018-11-03T01:07:15.101Z,4.30
2018-11-03T01:09:47.635Z,3.53
2018-11-03T01:12:17.404Z,4.37
2018-11-03T01:14:49.771Z,3.77
2018-11-03T01:17:19.447Z,3.73
2018-11-03T01:19:52.268Z,4.10
2018-11-03T01:22:21.655Z,3.67
2018-11-03T01:24:55.444Z,5.00
2018-11-03T01:27:24.672Z,4.37
2018-11-03T01:30:01.804Z,3.77
2018-11-03T01:32:31.287Z,3.73
2018-11-03T01:35:00.848Z,3.70
2018-11-03T01:37:30.140Z,3.90
2018-11-03T01:40:07.527Z,4.10
2018-11-03T01:42:36.696Z,3.63
2018-11-03T01:45:08.460Z,3.67
2018-11-03T01:47:38.081Z,3.43
2018-11-03T01:50:13.484Z,3.07
2018-11-03T01:52:43.556Z,3.83
2018-11-03T01:55:14.251Z,3.47
2018-11-03T01:57:43.319Z,3.73
2018-11-03T02:00:20.591Z,4.50
2018-11-03T02:02:50.257Z,4.17
2018-11-03T02:05:19.518Z,4.63
2018-11-03T02:07:49.037Z,4.73
2018-11-03T02:10:21.449Z,4.20
2018-11-03T02:12:50.661Z,4.23
2018-11-03T02:15:24.965Z,4.60
2018-11-03T02:17:54.104Z,4.40
2018-11-03T02:20:26.974Z,4.53
2018-11-03T02:22:56.380Z,4.67
2018-11-03T02:25:29.135Z,4.90
2018-11-03T02:27:58.245Z,4.70
2018-11-03T02:30:30.734Z,5.07
2018-11-03T02:33:00.192Z,4.50
2018-11-03T02:35:33.417Z,4.67
2018-11-03T02:38:03.815Z,4.63
2018-11-03T02:40:36.396Z,3.73
2018-11-03T02:43:05.616Z,4.30
2018-11-03T02:45:42.051Z,3.60
2018-11-03T02:48:11.444Z,3.07
2018-11-03T02:50:41.349Z,4.30
2018-11-03T02:53:10.436Z,3.83
2018-11-03T02:55:44.795Z,4.03
2018-11-03T02:58:13.852Z,3.53
2018-11-03T03:00:51.027Z,3.60
2018-11-03T03:03:20.218Z,4.30
2018-11-03T03:05:49.936Z,4.70
2018-11-03T03:08:19.055Z,4.13
2018-11-03T03:10:52.942Z,4.40
2018-11-03T03:13:22.324Z,4.20
2018-11-03T03:15:55.441Z,5.07
2018-11-03T03:18:24.881Z,3.93
2018-11-03T03:21:00.028Z,4.70
2018-11-03T03:23:29.693Z,5.20
2018-11-03T03:26:06.268Z,4.93
2018-11-03T03:28:35.892Z,4.63
2018-11-03T03:31:08.997Z,4.17
2018-11-03T03:33:38.041Z,5.30
2018-11-03T03:36:11.319Z,4.00
2018-11-03T03:38:41.078Z,4.23
2018-11-03T03:41:14.019Z,4.60
2018-11-03T03:43:43.325Z,4.20
2018-11-03T03:46:19.650Z,3.83
2018-11-03T03:48:48.768Z,4.07
2018-11-03T03:51:19.063Z,4.33
2018-11-03T03:53:48.106Z,4.43
2018-11-03T03:56:24.624Z,4.27
2018-11-03T03:58:53.700Z,4.23
2018-11-03T04:01:23.601Z,4.80
2018-11-03T04:03:53.139Z,4.60
2018-11-03T04:06:26.204Z,5.10
2018-11-03T04:08:55.363Z,3.93
2018-11-03T04:11:28.585Z,4.53
2018-11-03T04:13:57.665Z,4.60
2018-11-03T04:16:34.979Z,5.10
2018-11-03T04:19:04.040Z,5.03
2018-11-03T04:21:33.923Z,4.87
2018-11-03T04:24:03.733Z,5.00
2018-11-03T04:26:36.417Z,5.30
2018-11-03T04:29:06.101Z,5.23
2018-11-03T04:31:39.116Z,5.90
2018-11-03T04:34:08.819Z,5.30
2018-11-03T04:36:41.828Z,5.67
2018-11-03T04:39:11.058Z,5.60
2018-11-03T04:41:44.384Z,5.40
2018-11-03T04:44:13.889Z,6.27
2018-11-03T04:46:47.105Z,6.43
2018-11-03T04:49:16.464Z,6.27
2018-11-03T04:51:52.768Z,5.57
2018-11-03T04:54:22.341Z,5.77
2018-11-03T04:56:53.281Z,6.00
2018-11-03T04:59:22.423Z,6.47
2018-11-03T05:01:58.989Z,6.13
2018-11-03T05:04:28.086Z,7.33
2018-11-03T05:07:01.087Z,6.97
2018-11-03T05:09:30.180Z,6.30
2018-11-03T05:12:06.592Z,7.77
2018-11-03T05:14:36.144Z,7.40
2018-11-03T05:17:07.781Z,6.87
2018-11-03T05:19:37.147Z,7.13
2018-11-03T05:22:13.745Z,8.73
2018-11-03T05:24:43.021Z,7.37
2018-11-03T05:27:14.312Z,7.80
2018-11-03T05:29:44.847Z,6.87
2018-11-03T05:32:17.246Z,7.20
2018-11-03T05:34:46.461Z,6.63
2018-11-03T05:37:19.102Z,6.57
2018-11-03T05:39:48.232Z,7.17
2018-11-03T05:42:21.551Z,7.00
2018-11-03T05:44:50.937Z,6.00
2018-11-03T05:47:27.648Z,7.47
2018-11-03T05:49:57.176Z,7.60
2018-11-03T05:52:26.513Z,8.10
2018-11-03T05:54:56.638Z,7.63
2018-11-03T05:57:29.457Z,7.60
2018-11-03T05:59:58.508Z,8.17
2018-11-03T06:02:35.110Z,8.10
2018-11-03T06:05:04.268Z,7.47
2018-11-03T06:07:35.164Z,8.43
2018-11-03T06:10:04.905Z,6.80
2018-11-03T06:12:37.735Z,7.57
2018-11-03T06:15:07.013Z,7.33
2018-11-03T06:17:44.085Z,7.13
2018-11-03T06:20:13.139Z,6.83
2018-11-03T06:22:43.407Z,7.00
2018-11-03T06:25:12.642Z,6.17
2018-11-03T06:27:45.928Z,6.40
2018-11-03T06:30:15.367Z,6.10
2018-11-03T06:32:48.479Z,6.97
2018-11-03T06:35:17.936Z,6.80
2018-11-03T06:37:54.680Z,6.87
2018-11-03T06:40:24.096Z,6.87
2018-11-03T06:42:56.931Z,6.83
2018-11-03T06:45:26.045Z,7.17
2018-11-03T06:47:59.322Z,6.30
2018-11-03T06:50:28.499Z,7.27
2018-11-03T06:53:06.586Z,5.57
2018-11-03T06:55:35.797Z,6.80
2018-11-03T06:58:08.011Z,7.40
2018-11-03T07:00:37.321Z,6.20
2018-11-03T07:03:09.448Z,6.40
2018-11-03T07:05:38.672Z,6.20
2018-11-03T07:08:16.307Z,6.77
2018-11-03T07:10:46.420Z,6.10
2018-11-03T07:13:16.683Z,6.83
2018-11-03T07:15:45.779Z,5.90
2018-11-03T07:18:22.285Z,6.47
2018-11-03T07:20:51.415Z,6.50
2018-11-03T07:23:23.599Z,6.67
2018-11-03T07:25:53.318Z,7.00
2018-11-03T07:28:25.681Z,6.80
2018-11-03T07:30:55.117Z,6.97
2018-11-03T07:33:28.241Z,6.70
2018-11-03T07:35:57.575Z,6.60
2018-11-03T07:38:29.574Z,6.23
2018-11-03T07:40:59.154Z,6.93
2018-11-03T07:43:36.045Z,5.47
2018-11-03T07:46:05.468Z,5.07
2018-11-03T07:48:35.343Z,6.80
2018-11-03T07:51:04.599Z,5.27
2018-11-03T07:53:36.953Z,6.00
2018-11-03T07:56:06.477Z,6.33
2018-11-03T07:58:40.198Z,5.13
2018-11-03T08:01:11.152Z,4.50
2018-11-03T08:03:42.632Z,5.23
2018-11-03T08:06:11.892Z,4.67
2018-11-03T08:08:45.191Z,4.87
2018-11-03T08:11:14.439Z,4.47
2018-11-03T08:13:51.075Z,4.43
2018-11-03T08:16:20.714Z,4.33
2018-11-03T08:18:50.006Z,5.43
2018-11-03T08:21:20.582Z,3.77
2018-11-03T08:23:53.402Z,4.00
2018-11-03T08:26:22.654Z,3.73
2018-11-03T08:28:57.049Z,3.77
2018-11-03T08:31:26.310Z,3.67
2018-11-03T08:34:00.086Z,3.83
2018-11-03T08:36:29.865Z,3.73
2018-11-03T08:39:08.325Z,3.83
2018-11-03T08:41:38.290Z,4.80
2018-11-03T08:44:07.539Z,3.83
2018-11-03T08:46:37.605Z,3.93
2018-11-03T08:49:08.932Z,2.93
2018-11-03T08:51:38.547Z,3.37
2018-11-03T08:54:15.890Z,2.73
2018-11-03T08:56:45.391Z,2.00
2018-11-03T08:59:17.013Z,2.33
2018-11-03T09:01:46.636Z,1.80
2018-11-03T09:04:19.056Z,2.43
2018-11-03T09:06:48.290Z,1.70
2018-11-03T09:09:21.030Z,1.70
2018-11-03T09:11:50.768Z,1.23
2018-11-03T09:14:23.946Z,1.53
2018-11-03T09:16:53.480Z,1.20
2018-11-03T09:19:25.965Z,1.63
2018-11-03T09:21:57.752Z,1.80
2018-11-03T09:24:28.261Z,1.20
2018-11-03T09:26:58.840Z,1.27
2018-11-03T09:29:31.562Z,1.93
2018-11-03T09:32:07.561Z,2.17
2018-11-03T09:34:38.435Z,2.73
2018-11-03T09:37:08.008Z,2.30
2018-11-03T09:39:37.272Z,2.70
2018-11-03T09:42:11.178Z,2.87
2018-11-03T09:44:40.434Z,3.37
2018-11-03T09:47:09.887Z,1.90
2018-11-03T09:49:42.481Z,2.23
2018-11-03T09:52:11.590Z,1.93
2018-11-03T09:54:44.292Z,1.90
2018-11-03T09:57:14.869Z,1.80
2018-11-03T09:59:48.021Z,1.80
2018-11-03T10:02:17.610Z,2.57
2018-11-03T10:04:50.354Z,1.93
2018-11-03T10:07:19.993Z,2.27
2018-11-03T10:09:50.302Z,1.87
2018-11-03T10:12:20.857Z,2.30
2018-11-03T10:14:54.148Z,2.50
2018-11-03T10:17:25.250Z,2.67
2018-11-03T10:20:03.555Z,3.33
2018-11-03T10:22:33.089Z,3.53
2018-11-03T10:25:02.563Z,5.37
2018-11-03T10:27:32.737Z,3.53
2018-11-03T10:30:21.969Z,2.53
2018-11-03T10:32:52.158Z,1.40
2018-11-03T10:35:23.009Z,1.70
2018-11-03T10:38:10.170Z,1.23
2018-11-03T10:40:39.793Z,1.43
2018-11-03T10:43:16.191Z,1.80
2018-11-03T10:45:45.916Z,2.60
2018-11-03T10:48:15.723Z,2.37
2018-11-03T10:50:44.973Z,1.77
2018-11-03T10:53:19.066Z,2.20
2018-11-03T10:55:48.718Z,1.60
2018-11-03T11:00:56.543Z,1.53
2018-11-03T11:03:30.820Z,1.53
2018-11-03T11:06:05.845Z,1.37
2018-11-03T11:08:40.067Z,1.50
2018-11-03T11:11:14.985Z,2.53
2018-11-03T11:13:44.696Z,1.53
2018-11-03T11:16:15.105Z,1.13
2018-11-03T11:18:44.586Z,1.33
2018-11-03T11:21:14.188Z,1.40
2018-11-03T11:23:44.515Z,1.30
2018-11-03T11:26:14.978Z,1.13
2018-11-03T11:28:44.649Z,1.23
2018-11-03T11:31:14.733Z,1.30
2018-11-03T11:33:44.439Z,1.23
2018-11-03T11:36:14.794Z,1.63
2018-11-03T11:38:44.267Z,1.50
2018-11-03T11:41:14.477Z,1.33
2018-11-03T11:43:44.720Z,1.73
2018-11-03T11:46:14.946Z,1.30
2018-11-03T11:48:52.295Z,1.50
2018-11-03T11:51:22.168Z,1.33
2018-11-03T11:53:51.564Z,1.70
2018-11-03T11:56:22.136Z,0.80
2018-11-03T11:58:52.975Z,0.90
2018-11-03T12:01:22.104Z,0.80
2018-11-03T12:03:58.484Z,1.03
2018-11-03T12:06:27.693Z,1.10
2018-11-03T12:08:57.079Z,1.27
2018-11-03T12:11:28.923Z,1.03
2018-11-03T12:14:06.054Z,1.00
2018-11-03T12:16:35.788Z,0.80
2018-11-03T12:19:06.573Z,1.03
2018-11-03T12:21:35.832Z,0.80
2018-11-03T12:24:09.198Z,0.70
2018-11-03T12:26:38.707Z,0.90
2018-11-03T12:29:16.416Z,0.93
2018-11-03T12:31:45.737Z,0.90
2018-11-03T12:34:16.282Z,1.30
2018-11-03T12:36:46.060Z,1.00
2018-11-03T12:39:18.688Z,1.40
2018-11-03T12:41:48.580Z,1.40
2018-11-03T12:44:19.047Z,1.40
2018-11-03T12:46:48.437Z,1.33
2018-11-03T12:49:21.947Z,1.30
2018-11-03T12:51:52.449Z,1.30
2018-11-03T12:54:26.500Z,1.23
2018-11-03T12:56:56.139Z,1.13
2018-11-03T12:59:26.421Z,1.57
2018-11-03T13:01:56.968Z,1.60
2018-11-03T13:04:30.683Z,1.40
2018-11-03T13:07:01.161Z,1.53
2018-11-03T13:09:32.134Z,1.30
2018-11-03T13:12:03.154Z,1.37
2018-11-03T13:14:34.860Z,1.03
2018-11-03T13:17:04.140Z,1.40
2018-11-03T13:19:41.964Z,1.00
2018-11-03T13:22:11.728Z,1.37
2018-11-03T13:24:41.764Z,1.27
2018-11-03T13:27:12.303Z,1.20
2018-11-03T13:29:42.937Z,0.93
2018-11-03T13:32:12.611Z,1.57
2018-11-03T13:34:49.740Z,1.63
2018-11-03T13:37:20.303Z,1.30
2018-11-03T13:39:50.841Z,1.23
2018-11-03T13:42:20.438Z,1.07
2018-11-03T13:44:51.571Z,1.30
2018-11-03T13:47:21.252Z,1.20
2018-11-03T13:49:57.662Z,1.10
2018-11-03T13:52:27.578Z,1.00
2018-11-03T13:55:00.634Z,0.90
2018-11-03T13:57:30.942Z,0.97
2018-11-03T14:00:04.383Z,0.80
2018-11-03T14:02:33.779Z,0.80
2018-11-03T14:05:04.514Z,0.80
2018-11-03T14:07:35.986Z,0.87
2018-11-03T14:10:13.958Z,1.10
2018-11-03T14:12:43.997Z,1.20
2018-11-03T14:15:14.996Z,1.00
2018-11-03T14:17:44.625Z,1.23
2018-11-03T14:20:16.223Z,1.10
2018-11-03T14:22:46.194Z,1.20
2018-11-03T14:25:17.573Z,1.30
2018-11-03T14:27:48.401Z,1.20
2018-11-03T14:30:19.841Z,1.07
2018-11-03T14:32:49.018Z,0.93
2018-11-03T14:35:32.450Z,1.50
2018-11-03T14:38:03.003Z,1.00
2018-11-03T14:40:34.596Z,1.23
2018-11-03T14:43:09.277Z,1.70
2018-11-03T14:45:38.839Z,2.30
2018-11-03T14:48:09.266Z,1.70
2018-11-03T14:50:39.553Z,2.80
2018-11-03T14:53:09.455Z,2.00
2018-11-03T14:55:38.917Z,3.73
2018-11-03T14:58:09.333Z,3.00
2018-11-03T15:00:39.173Z,3.13
2018-11-03T15:03:08.765Z,2.60
2018-11-03T15:05:40.317Z,3.00
2018-11-03T15:08:13.522Z,2.20
2018-11-03T15:10:43.068Z,2.60
2018-11-03T15:13:13.801Z,2.80
2018-11-03T15:15:43.338Z,2.10
2018-11-03T15:18:14.577Z,2.80
2018-11-03T15:20:44.477Z,2.87
2018-11-03T15:23:14.124Z,2.70
2018-11-03T15:25:44.890Z,3.17
2018-11-03T15:28:16.281Z,2.50
2018-11-03T15:30:47.577Z,3.00
2018-11-03T15:33:18.073Z,2.13
2018-11-03T15:35:48.219Z,3.23
2018-11-03T15:38:18.415Z,2.50
2018-11-03T15:40:47.722Z,2.83
2018-11-03T15:43:18.578Z,2.80
2018-11-03T15:45:49.173Z,3.10
2018-11-03T15:48:19.224Z,3.10
2018-11-03T15:50:51.472Z,3.00
2018-11-03T15:53:21.417Z,3.00
2018-11-03T15:55:51.239Z,3.07
2018-11-03T15:58:21.134Z,4.00
2018-11-03T16:00:52.610Z,3.27
2018-11-03T16:03:22.028Z,3.60
2018-11-03T16:05:52.487Z,3.23
2018-11-03T16:08:22.542Z,2.93
2018-11-03T16:10:53.704Z,2.73
2018-11-03T16:13:24.365Z,3.60
2018-11-03T16:15:59.569Z,3.60
2018-11-03T16:18:29.372Z,3.70
2018-11-03T16:21:00.458Z,3.13
2018-11-03T16:23:30.673Z,3.60
2018-11-03T16:26:00.473Z,3.50
2018-11-03T16:28:32.229Z,2.63
2018-11-03T16:31:04.008Z,3.33
2018-11-03T16:33:34.537Z,2.97
2018-11-03T16:36:05.901Z,3.30
2018-11-03T16:38:36.483Z,3.23
2018-11-03T16:41:09.178Z,3.20
2018-11-03T16:43:41.099Z,3.60
2018-11-03T16:46:13.450Z,2.77
2018-11-03T16:48:46.769Z,3.23
2018-11-03T16:51:17.335Z,3.17
2018-11-03T16:53:47.924Z,3.63
2018-11-03T16:56:17.484Z,3.77
2018-11-03T16:58:48.354Z,3.60
2018-11-03T17:01:21.283Z,3.57
2018-11-03T17:03:51.216Z,3.37
2018-11-03T17:06:28.354Z,4.20
2018-11-03T17:08:57.692Z,3.63
2018-11-03T17:11:28.986Z,3.00
2018-11-03T17:13:58.449Z,2.93
2018-11-03T17:16:28.832Z,2.73
2018-11-03T17:19:00.613Z,3.40
2018-11-03T17:21:31.705Z,2.87
2018-11-03T17:24:01.282Z,3.10
2018-11-03T17:26:31.923Z,2.90
2018-11-03T17:29:01.214Z,2.90
2018-11-03T17:31:35.453Z,3.80
2018-11-03T17:34:06.165Z,2.33
2018-11-03T17:36:39.515Z,3.57
2018-11-03T17:39:11.057Z,3.43
2018-11-03T17:41:45.114Z,4.33
2018-11-03T17:44:14.859Z,4.17
2018-11-03T17:46:45.528Z,3.87
2018-11-03T17:49:15.909Z,4.07
2018-11-03T17:51:48.011Z,3.80
2018-11-03T17:54:18.085Z,3.30
2018-11-03T17:56:49.225Z,3.57
2018-11-03T17:59:18.904Z,3.80
2018-11-03T18:01:51.124Z,3.63
2018-11-03T18:04:21.547Z,3.57
2018-11-03T18:06:54.467Z,3.43
2018-11-03T18:09:23.995Z,3.33
2018-11-03T18:11:58.068Z,2.83
2018-11-03T18:14:28.793Z,3.93
2018-11-03T18:16:59.570Z,4.67
2018-11-03T18:19:30.841Z,3.90
2018-11-03T18:22:01.201Z,3.97
2018-11-03T18:24:31.986Z,4.47
2018-11-03T18:27:07.602Z,4.10
2018-11-03T18:29:37.616Z,4.43
2018-11-03T18:32:08.286Z,4.23
2018-11-03T18:34:37.808Z,4.70
2018-11-03T18:37:11.235Z,4.50
2018-11-03T18:39:40.568Z,5.03
2018-11-03T18:42:13.965Z,4.20
2018-11-03T18:44:43.945Z,3.93
2018-11-03T18:47:17.038Z,5.00
2018-11-03T18:49:46.748Z,3.83
2018-11-03T18:52:19.540Z,4.60
2018-11-03T18:54:49.978Z,5.00
2018-11-03T18:57:20.993Z,3.90
2018-11-03T18:59:52.008Z,5.87
2018-11-03T19:02:26.323Z,5.27
2018-11-03T19:04:57.514Z,5.67
2018-11-03T19:07:28.144Z,5.70
2018-11-03T19:09:57.396Z,4.53
2018-11-03T19:12:28.870Z,5.40
2018-11-03T19:14:58.991Z,5.40
2018-11-03T19:17:32.714Z,5.37
2018-11-03T19:20:02.224Z,4.47
2018-11-03T19:22:34.650Z,5.03
2018-11-03T19:25:04.578Z,4.10
2018-11-03T19:27:41.236Z,4.33
2018-11-03T19:30:13.568Z,3.83
2018-11-03T19:32:45.362Z,4.33
2018-11-03T19:35:15.265Z,3.53
2018-11-03T19:37:44.575Z,4.50
2018-11-03T19:40:24.036Z,4.20
2018-11-03T19:42:55.252Z,4.97
2018-11-03T19:45:28.487Z,4.60
2018-11-03T19:48:01.620Z,4.93
2018-11-03T19:50:37.083Z,5.63
2018-11-03T19:53:17.529Z,5.33
2018-11-03T19:55:58.936Z,5.97
2018-11-03T19:58:28.637Z,7.33
2018-11-03T20:00:59.738Z,7.73
2018-11-03T20:03:30.152Z,6.30
2018-11-03T20:06:01.610Z,7.07
2018-11-03T20:08:31.688Z,7.57
2018-11-03T20:11:01.862Z,8.03
2018-11-03T20:13:31.742Z,8.10
2018-11-03T20:16:06.616Z,8.37
2018-11-03T20:18:38.684Z,8.47
2018-11-03T20:21:10.598Z,9.00
2018-11-03T20:23:40.192Z,10.67
2018-11-03T20:26:09.905Z,9.17
2018-11-03T20:28:41.313Z,12.80
2018-11-03T20:31:13.462Z,10.83
2018-11-03T20:33:43.861Z,9.90
2018-11-03T20:36:16.067Z,9.03
2018-11-03T20:38:47.594Z,8.37
2018-11-03T20:41:16.853Z,7.97
2018-11-03T20:43:48.628Z,8.03
2018-11-03T20:46:18.113Z,8.77
2018-11-03T20:48:48.391Z,8.17
2018-11-03T20:51:21.342Z,8.07
2018-11-03T20:53:51.956Z,8.40
2018-11-03T20:56:22.984Z,6.47
2018-11-03T20:58:52.769Z,7.50
2018-11-03T21:01:29.970Z,7.10
2018-11-03T21:04:01.706Z,7.00
2018-11-03T21:06:33.148Z,7.53
2018-11-03T21:09:03.353Z,6.70
2018-11-03T21:11:32.861Z,5.77
2018-11-03T21:14:04.377Z,6.63
2018-11-03T21:16:35.708Z,6.37
2018-11-03T21:19:07.879Z,5.27
2018-11-03T21:21:38.383Z,7.03
2018-11-03T21:24:08.567Z,8.63
2018-11-03T21:26:38.138Z,9.80
2018-11-03T21:29:07.922Z,9.77
2018-11-03T21:31:41.456Z,10.97
2018-11-03T21:34:12.553Z,10.07
2018-11-03T21:36:45.498Z,11.17
2018-11-03T21:39:14.942Z,11.60
2018-11-03T21:41:47.149Z,11.70
2018-11-03T21:44:16.483Z,12.17
2018-11-03T21:46:49.728Z,11.60
2018-11-03T21:49:20.999Z,12.27
2018-11-03T21:51:52.102Z,10.47
2018-11-03T21:54:21.394Z,9.83
2018-11-03T21:56:55.863Z,8.97
2018-11-03T21:59:25.179Z,9.07
2018-11-03T22:01:58.557Z,9.07
2018-11-03T22:04:29.775Z,9.23
2018-11-03T22:07:01.165Z,8.87
2018-11-03T22:09:32.793Z,8.30
2018-11-03T22:12:04.052Z,9.77
2018-11-03T22:14:33.716Z,9.57
2018-11-03T22:17:07.897Z,8.80
2018-11-03T22:19:37.343Z,9.60
2018-11-03T22:22:10.967Z,7.80
2018-11-03T22:24:40.187Z,7.50
2018-11-03T22:27:14.614Z,7.00
2018-11-03T22:29:45.316Z,6.50
2018-11-03T22:32:15.153Z,6.47
2018-11-03T22:34:45.369Z,8.23
2018-11-03T22:37:18.641Z,6.60
2018-11-03T22:39:47.869Z,7.20
2018-11-03T22:42:19.028Z,6.53
2018-11-03T22:44:48.968Z,8.03
2018-11-03T22:47:22.331Z,8.10
2018-11-03T22:49:52.380Z,8.03
2018-11-03T22:52:24.955Z,6.43
2018-11-03T22:54:56.986Z,7.03
2018-11-03T22:57:27.639Z,6.57
2018-11-03T22:59:57.058Z,6.93
2018-11-03T23:02:29.920Z,8.20
2018-11-03T23:05:00.062Z,7.47
2018-11-03T23:07:32.172Z,7.17
2018-11-03T23:10:03.169Z,6.90
2018-11-03T23:12:34.112Z,7.57
2018-11-03T23:15:04.749Z,8.37
2018-11-03T23:17:35.996Z,7.30
2018-11-03T23:20:06.635Z,8.43
2018-11-03T23:22:37.788Z,8.10
2018-11-03T23:25:09.813Z,6.93
2018-11-03T23:27:45.078Z,6.97
2018-11-03T23:30:15.740Z,6.83
2018-11-03T23:32:44.866Z,7.93
2018-11-03T23:35:15.706Z,6.90
2018-11-03T23:37:45.485Z,7.47
2018-11-03T23:40:15.794Z,7.57
2018-11-03T23:42:53.913Z,6.77
2018-11-03T23:45:24.527Z,6.83
2018-11-03T23:47:53.750Z,7.00
2018-11-03T23:50:23.501Z,5.93
2018-11-03T23:52:55.496Z,6.40
2018-11-03T23:55:26.080Z,5.97
2018-11-03T23:57:56.804Z,6.63
